sensor_id;sensor_type;location;lat;lon;timestamp;P1;durP1;ratioP1;P2;durP2;ratioP2
10045;SDS011;5063;50.878;4.742;2023-07-31T00:01:24;12.77;;;5.27;;
10045;SDS011;5063;50.878;4.742;2023-07-31T00:03:50;10.07;;;4.93;;
10045;SDS011;5063;50.878;4.742;2023-07-31T00:06:15;10.60;;;4.73;;
10045;SDS011;5063;50.878;4.742;2023-07-31T00:08:41;11.43;;;4.83;;
10045;SDS011;5063;50.878;4.742;2023-07-31T00:11:07;14.57;;;5.13;;
10045;SDS011;5063;50.878;4.742;2023-07-31T00:13:32;13.70;;;5.17;;
10045;SDS011;5063;50.878;4.742;2023-07-31T00:15:58;11.43;;;4.47;;
10045;SDS011;5063;50.878;4.742;2023-07-31T00:18:24;15.43;;;5.67;;
10045;SDS011;5063;50.878;4.742;2023-07-31T00:20:50;13.13;;;5.43;;
10045;SDS011;5063;50.878;4.742;2023-07-31T00:23:15;12.70;;;4.67;;
10045;SDS011;5063;50.878;4.742;2023-07-31T00:25:41;8.87;;;4.43;;
10045;SDS011;5063;50.878;4.742;2023-07-31T00:28:07;10.93;;;4.83;;
10045;SDS011;5063;50.878;4.742;2023-07-31T00:30:33;11.67;;;5.40;;
10045;SDS011;5063;50.878;4.742;2023-07-31T00:32:58;15.23;;;5.27;;
10045;SDS011;5063;50.878;4.742;2023-07-31T00:35:24;8.70;;;4.70;;
10045;SDS011;5063;50.878;4.742;2023-07-31T00:37:50;14.93;;;4.30;;
10045;SDS011;5063;50.878;4.742;2023-07-31T00:40:15;12.73;;;5.23;;
10045;SDS011;5063;50.878;4.742;2023-07-31T00:42:41;9.80;;;4.50;;
10045;SDS011;5063;50.878;4.742;2023-07-31T00:45:07;11.20;;;4.93;;
10045;SDS011;5063;50.878;4.742;2023-07-31T00:47:33;14.50;;;6.03;;
10045;SDS011;5063;50.878;4.742;2023-07-31T00:49:58;8.93;;;4.27;;
10045;SDS011;5063;50.878;4.742;2023-07-31T00:52:24;11.37;;;4.90;;
10045;SDS011;5063;50.878;4.742;2023-07-31T00:54:50;10.90;;;4.30;;
10045;SDS011;5063;50.878;4.742;2023-07-31T00:57:16;10.73;;;5.30;;
10045;SDS011;5063;50.878;4.742;2023-07-31T00:59:41;13.00;;;5.43;;
10045;SDS011;5063;50.878;4.742;2023-07-31T01:02:07;11.30;;;4.60;;
10045;SDS011;5063;50.878;4.742;2023-07-31T01:04:33;11.27;;;4.73;;
10045;SDS011;5063;50.878;4.742;2023-07-31T01:09:29;12.03;;;4.97;;
10045;SDS011;5063;50.878;4.742;2023-07-31T01:11:57;11.67;;;4.33;;
10045;SDS011;5063;50.878;4.742;2023-07-31T01:14:26;12.30;;;4.60;;
10045;SDS011;5063;50.878;4.742;2023-07-31T01:16:52;10.80;;;4.50;;
10045;SDS011;5063;50.878;4.742;2023-07-31T01:19:19;14.30;;;5.17;;
10045;SDS011;5063;50.878;4.742;2023-07-31T01:27:09;9.07;;;4.93;;
10045;SDS011;5063;50.878;4.742;2023-07-31T01:29:43;8.67;;;5.07;;
10045;SDS011;5063;50.878;4.742;2023-07-31T01:32:14;10.30;;;4.97;;
10045;SDS011;5063;50.878;4.742;2023-07-31T01:34:42;14.00;;;5.30;;
10045;SDS011;5063;50.878;4.742;2023-07-31T01:37:09;13.00;;;5.20;;
10045;SDS011;5063;50.878;4.742;2023-07-31T01:39:35;11.77;;;4.70;;
10045;SDS011;5063;50.878;4.742;2023-07-31T01:42:00;7.77;;;5.03;;
10045;SDS011;5063;50.878;4.742;2023-07-31T01:44:26;11.27;;;5.30;;
10045;SDS011;5063;50.878;4.742;2023-07-31T01:46:52;8.80;;;4.67;;
10045;SDS011;5063;50.878;4.742;2023-07-31T01:49:17;10.03;;;4.87;;
10045;SDS011;5063;50.878;4.742;2023-07-31T01:51:43;14.27;;;4.73;;
10045;SDS011;5063;50.878;4.742;2023-07-31T01:54:09;11.20;;;4.97;;
10045;SDS011;5063;50.878;4.742;2023-07-31T01:56:34;8.47;;;4.33;;
10045;SDS011;5063;50.878;4.742;2023-07-31T01:59:00;9.20;;;5.07;;
10045;SDS011;5063;50.878;4.742;2023-07-31T02:01:26;9.83;;;4.50;;
10045;SDS011;5063;50.878;4.742;2023-07-31T02:03:51;8.30;;;5.00;;
10045;SDS011;5063;50.878;4.742;2023-07-31T02:06:17;9.13;;;4.50;;
10045;SDS011;5063;50.878;4.742;2023-07-31T02:08:43;11.17;;;4.60;;
10045;SDS011;5063;50.878;4.742;2023-07-31T02:11:09;11.07;;;5.20;;
10045;SDS011;5063;50.878;4.742;2023-07-31T02:13:34;9.70;;;4.73;;
10045;SDS011;5063;50.878;4.742;2023-07-31T02:16:00;10.13;;;5.47;;
10045;SDS011;5063;50.878;4.742;2023-07-31T02:18:26;11.67;;;4.67;;
10045;SDS011;5063;50.878;4.742;2023-07-31T02:20:52;11.00;;;5.50;;
10045;SDS011;5063;50.878;4.742;2023-07-31T02:23:18;9.23;;;4.57;;
10045;SDS011;5063;50.878;4.742;2023-07-31T02:25:44;9.20;;;4.87;;
10045;SDS011;5063;50.878;4.742;2023-07-31T02:28:11;9.10;;;5.30;;
10045;SDS011;5063;50.878;4.742;2023-07-31T02:30:36;8.53;;;4.47;;
10045;SDS011;5063;50.878;4.742;2023-07-31T02:33:03;12.27;;;5.30;;
10045;SDS011;5063;50.878;4.742;2023-07-31T02:35:29;10.63;;;5.30;;
10045;SDS011;5063;50.878;4.742;2023-07-31T02:37:55;12.53;;;5.40;;
10045;SDS011;5063;50.878;4.742;2023-07-31T02:40:21;9.57;;;4.97;;
10045;SDS011;5063;50.878;4.742;2023-07-31T02:42:46;6.57;;;4.60;;
10045;SDS011;5063;50.878;4.742;2023-07-31T02:45:12;11.40;;;4.90;;
10045;SDS011;5063;50.878;4.742;2023-07-31T02:47:38;11.10;;;4.93;;
10045;SDS011;5063;50.878;4.742;2023-07-31T02:50:04;8.17;;;4.70;;
10045;SDS011;5063;50.878;4.742;2023-07-31T02:52:30;6.47;;;4.83;;
10045;SDS011;5063;50.878;4.742;2023-07-31T02:54:56;11.83;;;4.70;;
10045;SDS011;5063;50.878;4.742;2023-07-31T02:57:22;9.33;;;5.23;;
10045;SDS011;5063;50.878;4.742;2023-07-31T02:59:48;10.67;;;5.23;;
10045;SDS011;5063;50.878;4.742;2023-07-31T03:02:13;9.37;;;5.20;;
10045;SDS011;5063;50.878;4.742;2023-07-31T03:04:39;10.07;;;4.83;;
10045;SDS011;5063;50.878;4.742;2023-07-31T03:07:05;9.00;;;5.33;;
10045;SDS011;5063;50.878;4.742;2023-07-31T03:09:31;5.67;;;4.13;;
10045;SDS011;5063;50.878;4.742;2023-07-31T03:11:56;8.33;;;5.00;;
10045;SDS011;5063;50.878;4.742;2023-07-31T03:14:22;7.80;;;4.30;;
10045;SDS011;5063;50.878;4.742;2023-07-31T03:16:48;8.20;;;4.93;;
10045;SDS011;5063;50.878;4.742;2023-07-31T03:19:14;8.10;;;4.60;;
10045;SDS011;5063;50.878;4.742;2023-07-31T03:21:40;9.00;;;4.47;;
10045;SDS011;5063;50.878;4.742;2023-07-31T03:24:06;8.33;;;4.30;;
10045;SDS011;5063;50.878;4.742;2023-07-31T03:26:31;7.30;;;4.17;;
10045;SDS011;5063;50.878;4.742;2023-07-31T03:28:57;6.93;;;4.10;;
10045;SDS011;5063;50.878;4.742;2023-07-31T03:31:23;8.47;;;4.60;;
10045;SDS011;5063;50.878;4.742;2023-07-31T03:33:49;7.50;;;4.13;;
10045;SDS011;5063;50.878;4.742;2023-07-31T03:36:14;6.97;;;4.33;;
10045;SDS011;5063;50.878;4.742;2023-07-31T03:38:40;7.97;;;4.17;;
10045;SDS011;5063;50.878;4.742;2023-07-31T03:41:06;9.13;;;4.83;;
10045;SDS011;5063;50.878;4.742;2023-07-31T03:43:32;9.27;;;4.10;;
10045;SDS011;5063;50.878;4.742;2023-07-31T03:46:00;5.37;;;3.60;;
10045;SDS011;5063;50.878;4.742;2023-07-31T03:48:27;4.33;;;3.23;;
10045;SDS011;5063;50.878;4.742;2023-07-31T03:50:53;6.23;;;4.10;;
10045;SDS011;5063;50.878;4.742;2023-07-31T03:53:19;7.13;;;4.10;;
10045;SDS011;5063;50.878;4.742;2023-07-31T03:55:45;6.50;;;4.37;;
10045;SDS011;5063;50.878;4.742;2023-07-31T03:58:11;10.27;;;4.47;;
10045;SDS011;5063;50.878;4.742;2023-07-31T04:00:36;8.13;;;4.73;;
10045;SDS011;5063;50.878;4.742;2023-07-31T04:03:02;9.20;;;4.90;;
10045;SDS011;5063;50.878;4.742;2023-07-31T04:05:29;8.57;;;4.33;;
10045;SDS011;5063;50.878;4.742;2023-07-31T04:07:56;8.10;;;4.33;;
10045;SDS011;5063;50.878;4.742;2023-07-31T04:10:22;8.97;;;4.50;;
10045;SDS011;5063;50.878;4.742;2023-07-31T04:12:48;6.37;;;3.97;;
10045;SDS011;5063;50.878;4.742;2023-07-31T04:15:13;4.97;;;4.00;;
10045;SDS011;5063;50.878;4.742;2023-07-31T04:17:39;6.13;;;3.63;;
10045;SDS011;5063;50.878;4.742;2023-07-31T04:20:05;7.73;;;4.40;;
10045;SDS011;5063;50.878;4.742;2023-07-31T04:22:31;5.80;;;3.73;;
10045;SDS011;5063;50.878;4.742;2023-07-31T04:24:57;6.60;;;3.90;;
10045;SDS011;5063;50.878;4.742;2023-07-31T04:27:22;6.73;;;3.90;;
10045;SDS011;5063;50.878;4.742;2023-07-31T04:29:48;7.57;;;4.00;;
10045;SDS011;5063;50.878;4.742;2023-07-31T04:32:14;4.47;;;3.43;;
10045;SDS011;5063;50.878;4.742;2023-07-31T04:34:41;6.40;;;3.93;;
10045;SDS011;5063;50.878;4.742;2023-07-31T04:37:07;4.57;;;4.13;;
10045;SDS011;5063;50.878;4.742;2023-07-31T04:39:33;5.63;;;4.03;;
10045;SDS011;5063;50.878;4.742;2023-07-31T04:41:59;5.90;;;3.73;;
10045;SDS011;5063;50.878;4.742;2023-07-31T04:44:25;10.77;;;4.43;;
10045;SDS011;5063;50.878;4.742;2023-07-31T04:46:50;7.13;;;3.97;;
10045;SDS011;5063;50.878;4.742;2023-07-31T04:49:16;7.37;;;3.90;;
10045;SDS011;5063;50.878;4.742;2023-07-31T04:51:42;6.93;;;4.47;;
10045;SDS011;5063;50.878;4.742;2023-07-31T04:54:07;8.73;;;3.97;;
10045;SDS011;5063;50.878;4.742;2023-07-31T04:56:33;8.07;;;4.07;;
10045;SDS011;5063;50.878;4.742;2023-07-31T04:58:59;10.10;;;4.07;;
10045;SDS011;5063;50.878;4.742;2023-07-31T05:01:24;6.27;;;4.40;;
10045;SDS011;5063;50.878;4.742;2023-07-31T05:03:50;6.60;;;4.07;;
10045;SDS011;5063;50.878;4.742;2023-07-31T05:06:16;11.70;;;4.13;;
10045;SDS011;5063;50.878;4.742;2023-07-31T05:08:42;5.37;;;3.67;;
10045;SDS011;5063;50.878;4.742;2023-07-31T05:11:07;6.37;;;3.80;;
10045;SDS011;5063;50.878;4.742;2023-07-31T05:13:33;5.83;;;4.60;;
10045;SDS011;5063;50.878;4.742;2023-07-31T05:15:59;6.93;;;4.07;;
10045;SDS011;5063;50.878;4.742;2023-07-31T05:18:24;7.30;;;3.80;;
10045;SDS011;5063;50.878;4.742;2023-07-31T05:20:50;8.53;;;3.70;;
10045;SDS011;5063;50.878;4.742;2023-07-31T05:23:16;8.03;;;4.10;;
10045;SDS011;5063;50.878;4.742;2023-07-31T05:25:42;5.40;;;3.50;;
10045;SDS011;5063;50.878;4.742;2023-07-31T05:28:07;7.07;;;3.83;;
10045;SDS011;5063;50.878;4.742;2023-07-31T05:30:33;6.17;;;3.60;;
10045;SDS011;5063;50.878;4.742;2023-07-31T05:32:59;7.03;;;3.87;;
10045;SDS011;5063;50.878;4.742;2023-07-31T05:35:24;6.70;;;3.83;;
10045;SDS011;5063;50.878;4.742;2023-07-31T05:37:50;6.90;;;4.23;;
10045;SDS011;5063;50.878;4.742;2023-07-31T05:40:16;5.17;;;3.20;;
10045;SDS011;5063;50.878;4.742;2023-07-31T05:42:41;8.47;;;4.13;;
10045;SDS011;5063;50.878;4.742;2023-07-31T05:45:07;10.67;;;4.07;;
10045;SDS011;5063;50.878;4.742;2023-07-31T05:47:33;5.50;;;3.40;;
10045;SDS011;5063;50.878;4.742;2023-07-31T05:49:59;9.80;;;3.87;;
10045;SDS011;5063;50.878;4.742;2023-07-31T05:52:25;6.73;;;3.93;;
10045;SDS011;5063;50.878;4.742;2023-07-31T05:54:51;5.93;;;3.60;;
10045;SDS011;5063;50.878;4.742;2023-07-31T05:57:16;8.20;;;3.60;;
10045;SDS011;5063;50.878;4.742;2023-07-31T05:59:42;7.30;;;3.70;;
10045;SDS011;5063;50.878;4.742;2023-07-31T06:02:08;6.03;;;3.43;;
10045;SDS011;5063;50.878;4.742;2023-07-31T06:04:33;5.07;;;3.53;;
10045;SDS011;5063;50.878;4.742;2023-07-31T06:06:59;7.13;;;3.20;;
10045;SDS011;5063;50.878;4.742;2023-07-31T06:09:25;5.00;;;3.23;;
10045;SDS011;5063;50.878;4.742;2023-07-31T06:11:51;14.77;;;5.80;;
10045;SDS011;5063;50.878;4.742;2023-07-31T06:14:17;8.07;;;3.60;;
10045;SDS011;5063;50.878;4.742;2023-07-31T06:16:43;7.73;;;3.70;;
10045;SDS011;5063;50.878;4.742;2023-07-31T06:19:09;9.93;;;4.50;;
10045;SDS011;5063;50.878;4.742;2023-07-31T06:21:35;14.27;;;6.07;;
10045;SDS011;5063;50.878;4.742;2023-07-31T06:24:07;5.97;;;3.60;;
10045;SDS011;5063;50.878;4.742;2023-07-31T06:26:32;6.43;;;3.40;;
10045;SDS011;5063;50.878;4.742;2023-07-31T06:28:58;8.13;;;3.67;;
10045;SDS011;5063;50.878;4.742;2023-07-31T06:31:24;6.70;;;3.43;;
10045;SDS011;5063;50.878;4.742;2023-07-31T06:33:50;9.17;;;3.57;;
10045;SDS011;5063;50.878;4.742;2023-07-31T06:36:17;6.97;;;3.30;;
10045;SDS011;5063;50.878;4.742;2023-07-31T06:38:42;6.67;;;4.03;;
10045;SDS011;5063;50.878;4.742;2023-07-31T06:41:08;5.27;;;3.43;;
10045;SDS011;5063;50.878;4.742;2023-07-31T06:43:35;5.33;;;3.57;;
10045;SDS011;5063;50.878;4.742;2023-07-31T06:46:05;8.87;;;4.37;;
10045;SDS011;5063;50.878;4.742;2023-07-31T06:48:35;5.37;;;3.30;;
10045;SDS011;5063;50.878;4.742;2023-07-31T06:51:02;6.60;;;3.50;;
10045;SDS011;5063;50.878;4.742;2023-07-31T06:53:28;7.57;;;3.40;;
10045;SDS011;5063;50.878;4.742;2023-07-31T06:55:54;5.67;;;3.53;;
10045;SDS011;5063;50.878;4.742;2023-07-31T06:58:20;5.17;;;3.30;;
10045;SDS011;5063;50.878;4.742;2023-07-31T07:00:46;4.03;;;3.10;;
10045;SDS011;5063;50.878;4.742;2023-07-31T07:03:11;7.37;;;3.57;;
10045;SDS011;5063;50.878;4.742;2023-07-31T07:05:40;6.53;;;3.40;;
10045;SDS011;5063;50.878;4.742;2023-07-31T07:08:05;5.03;;;3.40;;
10045;SDS011;5063;50.878;4.742;2023-07-31T07:10:31;4.70;;;3.00;;
10045;SDS011;5063;50.878;4.742;2023-07-31T07:12:57;6.50;;;3.67;;
10045;SDS011;5063;50.878;4.742;2023-07-31T07:15:22;6.47;;;3.33;;
10045;SDS011;5063;50.878;4.742;2023-07-31T07:17:48;5.47;;;3.33;;
10045;SDS011;5063;50.878;4.742;2023-07-31T07:20:14;7.90;;;3.47;;
10045;SDS011;5063;50.878;4.742;2023-07-31T07:22:40;6.17;;;3.00;;
10045;SDS011;5063;50.878;4.742;2023-07-31T07:25:08;4.10;;;2.97;;
10045;SDS011;5063;50.878;4.742;2023-07-31T07:27:34;7.70;;;3.37;;
10045;SDS011;5063;50.878;4.742;2023-07-31T07:30:00;8.57;;;3.20;;
10045;SDS011;5063;50.878;4.742;2023-07-31T07:32:25;3.70;;;2.87;;
10045;SDS011;5063;50.878;4.742;2023-07-31T07:34:51;5.88;;;3.67;;
10045;SDS011;5063;50.878;4.742;2023-07-31T07:37:17;4.00;;;2.80;;
10045;SDS011;5063;50.878;4.742;2023-07-31T07:39:43;3.57;;;2.87;;
10045;SDS011;5063;50.878;4.742;2023-07-31T07:42:09;3.83;;;3.17;;
10045;SDS011;5063;50.878;4.742;2023-07-31T07:44:35;5.28;;;3.47;;
10045;SDS011;5063;50.878;4.742;2023-07-31T07:47:00;5.32;;;3.05;;
10045;SDS011;5063;50.878;4.742;2023-07-31T07:49:26;7.43;;;3.47;;
10045;SDS011;5063;50.878;4.742;2023-07-31T07:51:52;6.85;;;2.75;;
10045;SDS011;5063;50.878;4.742;2023-07-31T07:54:17;4.68;;;2.72;;
10045;SDS011;5063;50.878;4.742;2023-07-31T07:56:45;3.90;;;2.97;;
10045;SDS011;5063;50.878;4.742;2023-07-31T07:59:10;7.20;;;3.40;;
10045;SDS011;5063;50.878;4.742;2023-07-31T08:01:36;6.50;;;3.63;;
10045;SDS011;5063;50.878;4.742;2023-07-31T08:04:02;5.03;;;2.60;;
10045;SDS011;5063;50.878;4.742;2023-07-31T08:06:28;3.30;;;2.72;;
10045;SDS011;5063;50.878;4.742;2023-07-31T08:08:54;4.38;;;2.75;;
10045;SDS011;5063;50.878;4.742;2023-07-31T08:11:20;4.82;;;2.85;;
10045;SDS011;5063;50.878;4.742;2023-07-31T08:13:48;5.63;;;2.97;;
10045;SDS011;5063;50.878;4.742;2023-07-31T08:16:14;6.95;;;3.28;;
10045;SDS011;5063;50.878;4.742;2023-07-31T08:18:40;5.20;;;2.80;;
10045;SDS011;5063;50.878;4.742;2023-07-31T08:21:07;5.20;;;3.22;;
10045;SDS011;5063;50.878;4.742;2023-07-31T08:23:33;6.13;;;2.97;;
10045;SDS011;5063;50.878;4.742;2023-07-31T08:25:59;5.07;;;3.20;;
10045;SDS011;5063;50.878;4.742;2023-07-31T08:28:25;5.22;;;2.85;;
10045;SDS011;5063;50.878;4.742;2023-07-31T08:30:50;3.50;;;2.67;;
10045;SDS011;5063;50.878;4.742;2023-07-31T08:33:16;3.88;;;2.90;;
10045;SDS011;5063;50.878;4.742;2023-07-31T08:35:42;4.23;;;2.73;;
10045;SDS011;5063;50.878;4.742;2023-07-31T08:38:07;4.05;;;2.42;;
10045;SDS011;5063;50.878;4.742;2023-07-31T08:40:35;4.70;;;2.95;;
10045;SDS011;5063;50.878;4.742;2023-07-31T08:43:03;4.65;;;2.47;;
10045;SDS011;5063;50.878;4.742;2023-07-31T08:45:29;4.95;;;2.65;;
10045;SDS011;5063;50.878;4.742;2023-07-31T08:47:56;4.45;;;2.90;;
10045;SDS011;5063;50.878;4.742;2023-07-31T08:50:22;5.45;;;2.78;;
10045;SDS011;5063;50.878;4.742;2023-07-31T08:52:49;3.90;;;2.60;;
10045;SDS011;5063;50.878;4.742;2023-07-31T08:55:16;5.22;;;2.45;;
10045;SDS011;5063;50.878;4.742;2023-07-31T08:57:42;2.33;;;2.10;;
10045;SDS011;5063;50.878;4.742;2023-07-31T09:00:09;3.90;;;2.55;;
10045;SDS011;5063;50.878;4.742;2023-07-31T09:05:33;4.40;;;2.38;;
10045;SDS011;5063;50.878;4.742;2023-07-31T09:08:01;4.22;;;2.63;;
10045;SDS011;5063;50.878;4.742;2023-07-31T09:10:29;3.60;;;2.28;;
10045;SDS011;5063;50.878;4.742;2023-07-31T09:12:55;3.22;;;2.40;;
10045;SDS011;5063;50.878;4.742;2023-07-31T09:15:21;3.33;;;2.50;;
10045;SDS011;5063;50.878;4.742;2023-07-31T09:17:49;4.07;;;2.42;;
10045;SDS011;5063;50.878;4.742;2023-07-31T09:20:27;5.78;;;2.50;;
10045;SDS011;5063;50.878;4.742;2023-07-31T09:22:53;4.22;;;2.78;;
10045;SDS011;5063;50.878;4.742;2023-07-31T09:25:30;3.30;;;2.63;;
10045;SDS011;5063;50.878;4.742;2023-07-31T09:27:57;4.32;;;2.47;;
10045;SDS011;5063;50.878;4.742;2023-07-31T09:30:24;4.72;;;2.40;;
10045;SDS011;5063;50.878;4.742;2023-07-31T09:32:50;4.10;;;2.30;;
10045;SDS011;5063;50.878;4.742;2023-07-31T09:35:28;6.32;;;3.17;;
10045;SDS011;5063;50.878;4.742;2023-07-31T09:37:59;3.38;;;2.53;;
10045;SDS011;5063;50.878;4.742;2023-07-31T09:42:56;7.43;;;3.08;;
10045;SDS011;5063;50.878;4.742;2023-07-31T09:45:23;3.30;;;2.65;;
10045;SDS011;5063;50.878;4.742;2023-07-31T09:47:49;5.18;;;2.78;;
10045;SDS011;5063;50.878;4.742;2023-07-31T09:50:15;3.45;;;2.67;;
10045;SDS011;5063;50.878;4.742;2023-07-31T09:52:41;4.47;;;2.88;;
10045;SDS011;5063;50.878;4.742;2023-07-31T09:55:07;3.55;;;2.47;;
10045;SDS011;5063;50.878;4.742;2023-07-31T09:57:34;3.95;;;2.72;;
10045;SDS011;5063;50.878;4.742;2023-07-31T10:00:09;4.13;;;2.50;;
10045;SDS011;5063;50.878;4.742;2023-07-31T10:02:36;5.25;;;3.40;;
10045;SDS011;5063;50.878;4.742;2023-07-31T10:05:03;3.85;;;2.45;;
10045;SDS011;5063;50.878;4.742;2023-07-31T10:07:30;7.40;;;2.90;;
10045;SDS011;5063;50.878;4.742;2023-07-31T10:09:59;7.07;;;2.80;;
10045;SDS011;5063;50.878;4.742;2023-07-31T10:12:26;4.80;;;3.10;;
10045;SDS011;5063;50.878;4.742;2023-07-31T10:14:55;3.70;;;3.08;;
10045;SDS011;5063;50.878;4.742;2023-07-31T10:17:22;4.75;;;2.97;;
10045;SDS011;5063;50.878;4.742;2023-07-31T10:19:49;3.92;;;3.20;;
10045;SDS011;5063;50.878;4.742;2023-07-31T10:22:15;5.97;;;3.30;;
10045;SDS011;5063;50.878;4.742;2023-07-31T10:24:48;6.10;;;3.15;;
10045;SDS011;5063;50.878;4.742;2023-07-31T10:27:15;5.93;;;3.75;;
10045;SDS011;5063;50.878;4.742;2023-07-31T10:29:41;6.28;;;3.30;;
10045;SDS011;5063;50.878;4.742;2023-07-31T10:32:13;6.07;;;3.47;;
10045;SDS011;5063;50.878;4.742;2023-07-31T10:34:41;5.57;;;3.47;;
10045;SDS011;5063;50.878;4.742;2023-07-31T10:40:05;4.28;;;3.38;;
10045;SDS011;5063;50.878;4.742;2023-07-31T10:42:32;7.30;;;3.50;;
10045;SDS011;5063;50.878;4.742;2023-07-31T10:47:31;7.20;;;3.83;;
10045;SDS011;5063;50.878;4.742;2023-07-31T10:52:51;5.25;;;3.45;;
10045;SDS011;5063;50.878;4.742;2023-07-31T10:57:56;7.88;;;3.58;;
10045;SDS011;5063;50.878;4.742;2023-07-31T11:00:32;6.75;;;4.18;;
10045;SDS011;5063;50.878;4.742;2023-07-31T11:05:48;6.38;;;3.47;;
10045;SDS011;5063;50.878;4.742;2023-07-31T11:10:48;7.72;;;4.47;;
10045;SDS011;5063;50.878;4.742;2023-07-31T11:13:16;4.90;;;3.50;;
10045;SDS011;5063;50.878;4.742;2023-07-31T11:15:42;6.47;;;3.60;;
10045;SDS011;5063;50.878;4.742;2023-07-31T11:18:07;4.35;;;3.67;;
10045;SDS011;5063;50.878;4.742;2023-07-31T11:20:36;7.40;;;3.67;;
10045;SDS011;5063;50.878;4.742;2023-07-31T11:23:03;6.13;;;3.75;;
10045;SDS011;5063;50.878;4.742;2023-07-31T11:25:32;6.00;;;3.83;;
10045;SDS011;5063;50.878;4.742;2023-07-31T11:28:02;5.35;;;3.80;;
10045;SDS011;5063;50.878;4.742;2023-07-31T11:30:29;9.00;;;3.97;;
10045;SDS011;5063;50.878;4.742;2023-07-31T11:32:55;7.20;;;3.83;;
10045;SDS011;5063;50.878;4.742;2023-07-31T11:35:21;7.03;;;3.80;;
10045;SDS011;5063;50.878;4.742;2023-07-31T11:37:47;8.32;;;4.05;;
10045;SDS011;5063;50.878;4.742;2023-07-31T11:40:13;7.63;;;4.15;;
10045;SDS011;5063;50.878;4.742;2023-07-31T11:42:40;7.15;;;3.63;;
10045;SDS011;5063;50.878;4.742;2023-07-31T11:45:09;6.78;;;3.55;;
10045;SDS011;5063;50.878;4.742;2023-07-31T11:47:36;7.50;;;4.28;;
10045;SDS011;5063;50.878;4.742;2023-07-31T11:50:07;5.78;;;3.63;;
10045;SDS011;5063;50.878;4.742;2023-07-31T11:52:38;6.90;;;3.83;;
10045;SDS011;5063;50.878;4.742;2023-07-31T11:55:07;6.88;;;3.60;;
10045;SDS011;5063;50.878;4.742;2023-07-31T11:57:38;8.25;;;4.00;;
10045;SDS011;5063;50.878;4.742;2023-07-31T12:00:06;5.65;;;3.53;;
10045;SDS011;5063;50.878;4.742;2023-07-31T12:02:34;6.70;;;3.75;;
10045;SDS011;5063;50.878;4.742;2023-07-31T12:05:01;5.68;;;3.60;;
10045;SDS011;5063;50.878;4.742;2023-07-31T12:07:27;7.57;;;3.92;;
10045;SDS011;5063;50.878;4.742;2023-07-31T12:09:55;5.43;;;3.55;;
10045;SDS011;5063;50.878;4.742;2023-07-31T12:12:22;5.03;;;3.03;;
10045;SDS011;5063;50.878;4.742;2023-07-31T12:14:50;5.63;;;3.50;;
10045;SDS011;5063;50.878;4.742;2023-07-31T12:17:17;6.88;;;3.35;;
10045;SDS011;5063;50.878;4.742;2023-07-31T12:19:45;5.68;;;3.63;;
10045;SDS011;5063;50.878;4.742;2023-07-31T12:22:13;6.97;;;3.40;;
10045;SDS011;5063;50.878;4.742;2023-07-31T12:24:41;7.00;;;3.72;;
10045;SDS011;5063;50.878;4.742;2023-07-31T12:27:14;4.55;;;3.42;;
10045;SDS011;5063;50.878;4.742;2023-07-31T12:29:43;8.43;;;3.65;;
10045;SDS011;5063;50.878;4.742;2023-07-31T12:32:24;6.43;;;4.22;;
10045;SDS011;5063;50.878;4.742;2023-07-31T12:34:53;6.63;;;3.50;;
10045;SDS011;5063;50.878;4.742;2023-07-31T12:37:20;8.52;;;3.90;;
10045;SDS011;5063;50.878;4.742;2023-07-31T12:39:46;6.85;;;3.85;;
10045;SDS011;5063;50.878;4.742;2023-07-31T12:42:11;6.50;;;3.58;;
10045;SDS011;5063;50.878;4.742;2023-07-31T12:44:37;6.32;;;3.97;;
10045;SDS011;5063;50.878;4.742;2023-07-31T12:47:03;7.43;;;3.80;;
10045;SDS011;5063;50.878;4.742;2023-07-31T12:49:29;7.70;;;3.70;;
10045;SDS011;5063;50.878;4.742;2023-07-31T12:51:54;5.80;;;4.03;;
10045;SDS011;5063;50.878;4.742;2023-07-31T12:54:20;7.22;;;3.40;;
10045;SDS011;5063;50.878;4.742;2023-07-31T12:56:46;9.07;;;4.22;;
10045;SDS011;5063;50.878;4.742;2023-07-31T12:59:11;5.90;;;3.63;;
10045;SDS011;5063;50.878;4.742;2023-07-31T13:01:37;6.10;;;3.92;;
10045;SDS011;5063;50.878;4.742;2023-07-31T13:04:03;9.35;;;4.43;;
10045;SDS011;5063;50.878;4.742;2023-07-31T13:06:29;7.97;;;4.35;;
10045;SDS011;5063;50.878;4.742;2023-07-31T13:08:54;10.63;;;4.22;;
10045;SDS011;5063;50.878;4.742;2023-07-31T13:11:20;6.38;;;3.90;;
10045;SDS011;5063;50.878;4.742;2023-07-31T13:13:46;5.93;;;4.00;;
10045;SDS011;5063;50.878;4.742;2023-07-31T13:16:11;7.05;;;4.38;;
10045;SDS011;5063;50.878;4.742;2023-07-31T13:18:37;9.43;;;4.20;;
10045;SDS011;5063;50.878;4.742;2023-07-31T13:21:03;5.97;;;4.43;;
10045;SDS011;5063;50.878;4.742;2023-07-31T13:23:28;6.43;;;4.00;;
10045;SDS011;5063;50.878;4.742;2023-07-31T13:25:54;7.72;;;3.83;;
10045;SDS011;5063;50.878;4.742;2023-07-31T13:28:20;7.13;;;3.95;;
10045;SDS011;5063;50.878;4.742;2023-07-31T13:30:45;9.45;;;3.65;;
10045;SDS011;5063;50.878;4.742;2023-07-31T13:33:11;8.00;;;4.07;;
10045;SDS011;5063;50.878;4.742;2023-07-31T13:35:37;5.65;;;3.90;;
10045;SDS011;5063;50.878;4.742;2023-07-31T13:38:02;5.18;;;3.17;;
10045;SDS011;5063;50.878;4.742;2023-07-31T13:40:28;5.57;;;3.05;;
10045;SDS011;5063;50.878;4.742;2023-07-31T13:42:54;6.40;;;3.53;;
10045;SDS011;5063;50.878;4.742;2023-07-31T13:45:20;4.80;;;3.00;;
10045;SDS011;5063;50.878;4.742;2023-07-31T13:47:46;3.50;;;2.75;;
10045;SDS011;5063;50.878;4.742;2023-07-31T13:50:12;4.07;;;2.70;;
10045;SDS011;5063;50.878;4.742;2023-07-31T13:52:37;4.80;;;2.90;;
10045;SDS011;5063;50.878;4.742;2023-07-31T13:55:03;3.70;;;2.83;;
10045;SDS011;5063;50.878;4.742;2023-07-31T13:57:29;8.63;;;2.95;;
10045;SDS011;5063;50.878;4.742;2023-07-31T13:59:55;5.10;;;3.33;;
10045;SDS011;5063;50.878;4.742;2023-07-31T14:02:20;5.50;;;3.33;;
10045;SDS011;5063;50.878;4.742;2023-07-31T14:04:46;5.88;;;3.80;;
10045;SDS011;5063;50.878;4.742;2023-07-31T14:07:12;6.07;;;3.35;;
10045;SDS011;5063;50.878;4.742;2023-07-31T14:09:37;4.93;;;3.45;;
10045;SDS011;5063;50.878;4.742;2023-07-31T14:12:03;5.10;;;3.28;;
10045;SDS011;5063;50.878;4.742;2023-07-31T14:14:29;4.72;;;3.17;;
10045;SDS011;5063;50.878;4.742;2023-07-31T14:16:55;4.40;;;2.88;;
10045;SDS011;5063;50.878;4.742;2023-07-31T14:19:20;3.83;;;2.90;;
10045;SDS011;5063;50.878;4.742;2023-07-31T14:21:46;2.60;;;2.40;;
10045;SDS011;5063;50.878;4.742;2023-07-31T14:24:12;5.13;;;2.55;;
10045;SDS011;5063;50.878;4.742;2023-07-31T14:26:37;3.95;;;2.50;;
10045;SDS011;5063;50.878;4.742;2023-07-31T14:29:03;3.83;;;2.92;;
10045;SDS011;5063;50.878;4.742;2023-07-31T14:31:29;3.65;;;2.55;;
10045;SDS011;5063;50.878;4.742;2023-07-31T14:33:55;6.30;;;2.45;;
10045;SDS011;5063;50.878;4.742;2023-07-31T14:36:20;3.10;;;2.53;;
10045;SDS011;5063;50.878;4.742;2023-07-31T14:38:46;2.80;;;2.30;;
10045;SDS011;5063;50.878;4.742;2023-07-31T14:41:12;3.67;;;2.58;;
10045;SDS011;5063;50.878;4.742;2023-07-31T14:43:37;3.13;;;2.83;;
10045;SDS011;5063;50.878;4.742;2023-07-31T14:46:03;5.15;;;2.55;;
10045;SDS011;5063;50.878;4.742;2023-07-31T14:48:29;5.50;;;2.83;;
10045;SDS011;5063;50.878;4.742;2023-07-31T14:50:55;5.38;;;2.42;;
10045;SDS011;5063;50.878;4.742;2023-07-31T14:53:21;4.70;;;2.83;;
10045;SDS011;5063;50.878;4.742;2023-07-31T14:55:47;3.03;;;2.38;;
10045;SDS011;5063;50.878;4.742;2023-07-31T14:58:12;4.32;;;2.05;;
10045;SDS011;5063;50.878;4.742;2023-07-31T15:00:39;3.05;;;2.15;;
10045;SDS011;5063;50.878;4.742;2023-07-31T15:03:05;4.32;;;2.22;;
10045;SDS011;5063;50.878;4.742;2023-07-31T15:05:31;2.50;;;2.30;;
10045;SDS011;5063;50.878;4.742;2023-07-31T15:07:56;3.03;;;2.05;;
10045;SDS011;5063;50.878;4.742;2023-07-31T15:10:22;2.33;;;2.08;;
10045;SDS011;5063;50.878;4.742;2023-07-31T15:12:48;2.30;;;2.10;;
10045;SDS011;5063;50.878;4.742;2023-07-31T15:15:14;4.43;;;1.98;;
10045;SDS011;5063;50.878;4.742;2023-07-31T15:17:40;5.72;;;2.05;;
10045;SDS011;5063;50.878;4.742;2023-07-31T15:20:06;3.00;;;1.80;;
10045;SDS011;5063;50.878;4.742;2023-07-31T15:22:32;2.42;;;2.00;;
10045;SDS011;5063;50.878;4.742;2023-07-31T15:24:58;3.47;;;2.25;;